Time;durP1;ratioP1;P1;durP2;ratioP2;P2;SDS_P1;SDS_P2;PMS_P1;PMS_P2;Temp;Humidity;BMP_temperature;BMP_pressure;BME280_temperature;BME280_humidity;BME280_pressure;Samples;Min_cycle;Max_cycle;Signal;HPM_P1;HPM_P2
2021/01/02 00:00:59;;;;;;;27.95;19.63;;;;;;;3.13;69.10;95001.28;4741191;30;20078;-46
2021/01/02 00:03:49;;;;;;;32.22;19.45;;;;;;;3.27;68.49;95005.41;4752130;30;20063;-47
2021/01/02 00:06:51;;;;;;;29.95;20.20;;;;;;;3.33;68.21;95011.44;4751842;30;20139;-42
2021/01/02 00:09:22;;;;;;;27.40;18.40;;;;;;;3.27;68.33;95012.66;4743435;30;20067;-47
2021/01/02 00:12:07;;;;;;;29.52;19.48;;;;;;;3.28;68.48;95014.22;4740915;30;20057;-43
2021/01/02 00:14:55;;;;;;;30.88;19.77;;;;;;;3.13;68.76;95012.75;4738473;30;20431;-42
2021/01/02 00:18:12;;;;;;;27.38;18.42;;;;;;;3.12;69.25;95005.84;4751077;30;20087;-44
2021/01/02 00:21:16;;;;;;;31.65;19.25;;;;;;;3.12;69.25;95005.03;4745258;30;20056;-44
2021/01/02 00:24:02;;;;;;;32.70;19.83;;;;;;;3.02;69.58;95022.13;4738267;30;20055;-45
2021/01/02 00:26:54;;;;;;;30.77;20.40;;;;;;;3.04;69.70;95004.69;4736429;30;20057;-41
2021/01/02 00:29:23;;;;;;;33.83;19.88;;;;;;;2.99;69.75;94993.34;4736582;30;20059;-45
2021/01/02 00:32:08;;;;;;;28.13;18.50;;;;;;;3.16;69.73;94990.75;4751304;30;20121;-46
2021/01/02 00:34:52;;;;;;;30.88;19.77;;;;;;;3.26;69.07;95003.06;4752567;30;20052;-45
2021/01/02 00:37:41;;;;;;;30.85;20.05;;;;;;;3.32;68.66;95017.88;4743824;30;20074;-48
2021/01/02 00:40:13;;;;;;;31.33;19.48;;;;;;;3.40;68.46;95032.38;4749163;30;20507;-43
2021/01/02 00:42:42;;;;;;;29.35;19.48;;;;;;;3.31;68.21;95016.28;4735476;30;20106;-43
2021/01/02 00:45:20;;;;;;;29.27;20.00;;;;;;;3.12;68.78;94999.69;4747724;30;20052;-45
2021/01/02 00:47:51;;;;;;;30.20;19.70;;;;;;;3.17;68.83;95020.94;4745437;30;20052;-45
2021/01/02 00:50:25;;;;;;;;;;;;;;;3.22;68.64;95018.16;4752496;30;20059;-45
2021/01/02 00:52:54;;;;;;;28.73;18.25;;;;;;;3.02;69.27;95014.09;4756455;30;20286;-45
2021/01/02 00:55:25;;;;;;;;;;;;;;;3.08;69.15;95015.56;4751454;30;20423;-45
2021/01/02 00:58:04;;;;;;;29.63;18.38;;;;;;;3.01;69.49;95007.97;4764745;30;20017;-41
2021/01/02 01:00:35;;;;;;;33.97;20.70;;;;;;;2.78;70.25;95015.22;4750813;30;20174;-44
2021/01/02 01:03:24;;;;;;;26.50;17.80;;;;;;;2.79;70.39;95032.03;4737994;30;20053;-45
2021/01/02 01:05:55;;;;;;;29.52;18.70;;;;;;;2.77;70.49;95023.56;4734851;30;20064;-43
2021/01/02 01:08:23;;;;;;;35.40;20.33;;;;;;;2.73;70.93;95015.38;4749691;30;20088;-44
2021/01/02 01:10:50;;;;;;;34.38;20.80;;;;;;;2.73;70.62;95015.38;4739782;30;20580;-42
2021/01/02 01:13:24;;;;;;;32.97;21.60;;;;;;;2.67;71.24;95027.25;4746119;30;20083;-44
2021/01/02 01:15:51;;;;;;;;;;;;;;;2.19;73.22;95027.81;4747524;30;20618;-48
2021/01/02 01:18:19;;;;;;;38.33;23.92;;;;;;;1.87;75.03;95026.09;4742230;30;19969;-40
2021/01/02 01:20:48;;;;;;;34.83;22.65;;;;;;;1.86;75.44;95016.53;4744571;30;20522;-45
2021/01/02 01:23:26;;;;;;;37.55;24.30;;;;;;;2.18;74.46;95022.78;4737024;30;20103;-44
2021/01/02 01:26:01;;;;;;;37.17;23.83;;;;;;;2.08;74.52;95021.13;4751802;30;20563;-40
2021/01/02 01:28:31;;;;;;;37.25;23.13;;;;;;;1.89;75.92;95026.59;4739146;30;20163;-48
2021/01/02 01:31:00;;;;;;;37.00;23.73;;;;;;;2.04;75.07;95026.25;4734037;30;20191;-43
2021/01/02 01:33:29;;;;;;;39.67;24.83;;;;;;;2.13;74.75;95018.34;4749819;30;20243;-44
2021/01/02 01:36:01;;;;;;;39.58;25.23;;;;;;;1.84;76.40;95035.50;4749819;30;20063;-44
2021/01/02 01:38:30;;;;;;;37.90;24.70;;;;;;;2.10;75.13;95043.75;4740919;30;20052;-41
2021/01/02 01:41:16;;;;;;;38.28;24.45;;;;;;;2.10;75.36;95045.63;4745990;30;20055;-40
2021/01/02 01:43:49;;;;;;;38.22;24.77;;;;;;;2.34;74.18;95050.72;4745093;30;20559;-44
2021/01/02 01:46:17;;;;;;;41.30;24.90;;;;;;;2.34;73.92;95050.72;4745000;30;20048;-43
2021/01/02 01:48:52;;;;;;;39.50;24.88;;;;;;;1.92;76.00;95043.88;4745340;30;20500;-40
2021/01/02 01:51:39;;;;;;;41.88;26.20;;;;;;;1.66;76.88;95047.09;4736998;30;20053;-40
2021/01/02 01:54:26;;;;;;;40.53;25.15;;;;;;;1.34;78.76;95043.41;4751348;30;20418;-41
2021/01/02 01:57:01;;;;;;;40.03;26.48;;;;;;;1.26;78.95;95040.63;4751311;30;20083;-42
2021/01/02 01:59:55;;;;;;;44.58;27.33;;;;;;;1.15;79.44;95045.38;4749587;30;20052;-45
2021/01/02 02:02:32;;;;;;;46.67;27.10;;;;;;;1.03;80.18;95040.50;4742313;30;20136;-44
2021/01/02 02:05:04;;;;;;;41.80;26.67;;;;;;;1.33;79.30;95055.16;4740757;30;20127;-45
2021/01/02 02:07:47;;;;;;;41.97;27.17;;;;;;;1.68;77.42;95044.88;4740488;30;20052;-43
2021/01/02 02:10:35;;;;;;;42.40;25.60;;;;;;;1.46;77.84;95042.91;4736224;30;20057;-43
2021/01/02 02:13:12;;;;;;;41.20;27.63;;;;;;;1.55;77.85;95046.47;4750708;30;20553;-46
2021/01/02 02:15:57;;;;;;;42.42;25.80;;;;;;;1.33;78.77;95043.69;4733694;30;20048;-41
2021/01/02 02:18:26;;;;;;;43.40;26.90;;;;;;;1.46;78.79;95042.91;4745988;30;20075;-43
2021/01/02 02:20:55;;;;;;;45.25;26.33;;;;;;;1.68;77.63;95041.44;4733352;30;20138;-42
2021/01/02 02:23:46;;;;;;;44.85;25.55;;;;;;;1.99;75.99;95033.59;4741565;30;20119;-43
2021/01/02 02:26:15;;;;;;;42.97;26.15;;;;;;;2.00;75.86;95030.63;4749497;30;20066;-43
2021/01/02 02:28:53;;;;;;;46.83;28.15;;;;;;;1.85;76.40;95036.28;4733960;30;20056;-45
2021/01/02 02:31:24;;;;;;;41.42;26.85;;;;;;;1.72;77.00;95031.75;4741318;30;20086;-44
2021/01/02 02:33:56;;;;;;;45.35;27.40;;;;;;;1.68;77.31;95031.56;4738424;30;20068;-44
2021/01/02 02:36:27;;;;;;;41.85;26.38;;;;;;;1.67;77.29;95031.88;4748243;30;20060;-42
2021/01/02 02:38:57;;;;;;;44.92;26.83;;;;;;;1.54;77.80;95034.22;4745222;30;20057;-44
2021/01/02 02:41:31;;;;;;;44.88;25.90;;;;;;;1.79;77.13;95034.81;4742182;30;20075;-39
2021/01/02 02:44:02;;;;;;;43.40;27.55;;;;;;;1.71;77.16;95024.84;4750640;30;20065;-40
2021/01/02 02:46:33;;;;;;;47.95;28.45;;;;;;;1.67;77.24;95021.97;4736016;30;20049;-41
2021/01/02 02:49:06;;;;;;;41.83;27.30;;;;;;;1.76;76.92;95020.19;4744233;30;20092;-43
2021/01/02 02:51:41;;;;;;;42.53;26.92;;;;;;;1.62;77.50;95001.53;4742064;30;20155;-44
2021/01/02 02:54:08;;;;;;;41.55;25.98;;;;;;;1.83;76.33;95014.47;4736300;30;20061;-42
2021/01/02 02:56:34;;;;;;;44.75;25.75;;;;;;;1.79;76.68;95013.50;4747352;30;20143;-45
2021/01/02 02:59:01;;;;;;;45.03;27.10;;;;;;;1.51;78.15;95013.50;4733763;30;20065;-45
2021/01/02 03:01:29;;;;;;;44.20;25.83;;;;;;;1.56;77.95;95010.75;4734787;30;20481;-44
2021/01/02 03:03:55;;;;;;;41.38;25.67;;;;;;;1.80;77.20;95005.19;4750050;30;20146;-43
2021/01/02 03:06:23;;;;;;;32.00;21.40;;;;;;;1.90;75.57;95009.50;4737021;30;20067;-42
2021/01/02 03:08:53;;;;;;;33.00;20.23;;;;;;;2.17;74.51;95011.31;4737228;30;20056;-44
2021/01/02 03:11:24;;;;;;;33.83;21.80;;;;;;;2.30;73.80;95010.47;4742232;30;20129;-46
2021/01/02 03:13:52;;;;;;;37.40;23.60;;;;;;;2.17;74.44;95013.19;4745104;30;20075;-42
2021/01/02 03:16:19;;;;;;;36.03;21.88;;;;;;;2.33;73.47;95009.09;4748984;30;20106;-43
2021/01/02 03:18:46;;;;;;;34.63;21.42;;;;;;;2.23;73.88;95009.31;4743279;30;20140;-40
2021/01/02 03:21:12;;;;;;;37.47;23.52;;;;;;;2.34;73.74;95018.69;4740319;30;20056;-40
2021/01/02 03:23:48;;;;;;;39.15;23.48;;;;;;;2.17;74.71;95030.00;4739363;30;20564;-45
2021/01/02 03:26:16;;;;;;;35.53;22.95;;;;;;;2.23;74.21;95028.00;4746226;30;20060;-47
2021/01/02 03:28:52;;;;;;;39.08;23.90;;;;;;;2.16;74.36;95022.31;4738751;30;20578;-44
2021/01/02 03:31:21;;;;;;;38.13;22.98;;;;;;;1.97;74.62;94991.22;4733916;30;20064;-44
2021/01/02 03:33:48;;;;;;;34.30;21.75;;;;;;;2.49;73.35;95030.88;4750595;30;20080;-41
2021/01/02 03:36:15;;;;;;;27.67;17.85;;;;;;;2.53;71.42;95023.84;4751430;30;20140;-40
2021/01/02 03:38:52;;;;;;;27.45;18.02;;;;;;;2.47;72.57;95033.88;4742222;30;20064;-40
2021/01/02 03:41:18;;;;;;;26.02;17.38;;;;;;;2.63;71.48;95036.16;4751173;30;20143;-40
2021/01/02 03:43:44;;;;;;;27.73;17.08;;;;;;;2.65;71.21;95034.00;4749171;30;20060;-40
2021/01/02 03:46:11;;;;;;;23.88;15.85;;;;;;;2.54;70.87;95020.88;4742977;30;20589;-45
2021/01/02 03:48:37;;;;;;;22.67;14.23;;;;;;;2.52;70.10;95020.38;4745420;30;20060;-48
2021/01/02 03:51:04;;;;;;;23.45;14.85;;;;;;;2.47;71.02;95023.19;4745630;30;20064;-42
2021/01/02 03:53:30;;;;;;;22.48;14.27;;;;;;;2.60;70.45;95024.22;4739165;30;20056;-41
2021/01/02 03:55:57;;;;;;;21.73;13.98;;;;;;;2.78;69.48;95033.13;4752503;30;20060;-44
2021/01/02 03:58:24;;;;;;;18.35;12.20;;;;;;;2.53;69.90;95021.19;4750359;30;20060;-44
2021/01/02 04:00:50;;;;;;;22.55;13.27;;;;;;;2.20;71.19;95017.94;4742647;30;20144;-43
2021/01/02 04:03:17;;;;;;;20.63;13.48;;;;;;;2.20;71.08;95002.72;4743451;30;20131;-46
2021/01/02 04:05:45;;;;;;;22.08;12.73;;;;;;;2.19;71.05;95008.34;4745741;30;20056;-42
2021/01/02 04:08:11;;;;;;;17.60;11.98;;;;;;;2.19;70.88;95016.38;4744576;30;20057;-44
2021/01/02 04:10:37;;;;;;;20.17;12.63;;;;;;;2.31;70.37;95013.97;4742592;30;20127;-45
2021/01/02 04:13:05;;;;;;;19.05;12.43;;;;;;;2.13;70.74;95007.69;4741881;30;20071;-39
2021/01/02 04:15:32;;;;;;;18.58;12.30;;;;;;;2.11;70.75;95009.84;4745109;30;20052;-39
2021/01/02 04:17:58;;;;;;;21.05;12.05;;;;;;;1.92;71.73;94998.53;4746566;30;20143;-39
2021/01/02 04:20:26;;;;;;;17.13;10.98;;;;;;;2.15;70.32;95007.38;4744064;30;20478;-40
2021/01/02 04:22:53;;;;;;;19.10;12.18;;;;;;;2.20;70.44;95000.03;4751929;30;20080;-43
2021/01/02 04:25:19;;;;;;;20.90;12.38;;;;;;;2.38;69.68;95009.00;4745314;30;20082;-42
2021/01/02 04:27:45;;;;;;;19.42;12.13;;;;;;;2.20;70.60;95004.59;4741294;30;20048;-40
2021/01/02 04:30:13;;;;;;;20.85;13.48;;;;;;;2.26;70.86;95008.72;4734081;30;20063;-44
2021/01/02 04:32:44;;;;;;;21.95;12.85;;;;;;;2.49;69.85;95004.97;4745338;30;20144;-43
2021/01/02 04:35:11;;;;;;;21.70;13.77;;;;;;;2.33;70.14;94998.41;4743758;30;20123;-46
2021/01/02 04:37:38;;;;;;;18.15;12.70;;;;;;;2.29;70.11;95005.47;4741641;30;20083;-44
2021/01/02 04:40:05;;;;;;;21.05;12.95;;;;;;;2.14;70.63;95013.78;4748651;30;20550;-44
2021/01/02 04:42:33;;;;;;;20.85;13.13;;;;;;;2.17;70.05;95008.66;4755487;30;20491;-46
2021/01/02 04:44:59;;;;;;;19.58;12.65;;;;;;;1.78;71.81;95012.69;4740565;30;20654;-43
2021/01/02 04:47:28;;;;;;;19.98;12.20;;;;;;;1.90;71.44;95019.41;4742187;30;20061;-42
2021/01/02 04:49:54;;;;;;;20.52;12.07;;;;;;;1.95;71.10;95005.94;4741789;30;20215;-41
2021/01/02 04:52:22;;;;;;;22.25;12.85;;;;;;;1.89;71.01;95012.50;4736075;30;20057;-40
2021/01/02 04:54:49;;;;;;;20.67;12.43;;;;;;;1.58;72.25;95015.75;4747474;30;20064;-40
2021/01/02 04:57:17;;;;;;;17.17;11.70;;;;;;;1.74;71.49;95005.59;4742350;30;20135;-43
2021/01/02 04:59:49;;;;;;;20.60;12.55;;;;;;;1.86;71.14;95000.53;4744753;30;20428;-40
2021/01/02 05:02:20;;;;;;;18.10;11.93;;;;;;;1.40;72.95;95009.47;4748603;30;20147;-40
2021/01/02 05:04:47;;;;;;;20.65;12.90;;;;;;;1.53;72.83;95011.34;4743516;30;20058;-43
2021/01/02 05:07:24;;;;;;;20.40;12.75;;;;;;;1.80;71.92;95012.41;4744781;30;20084;-41
2021/01/02 05:09:51;;;;;;;19.42;11.93;;;;;;;1.96;71.07;95000.31;4740060;30;20107;-40
2021/01/02 05:12:31;;;;;;;22.98;12.95;;;;;;;1.90;71.17;95009.50;4748699;30;20541;-39
2021/01/02 05:14:58;;;;;;;21.88;12.95;;;;;;;1.95;70.94;95012.06;4740114;30;20056;-40
2021/01/02 05:17:26;;;;;;;18.92;11.50;;;;;;;1.97;70.90;95023.22;4743181;30;20453;-41
2021/01/02 05:20:14;;;;;;;17.48;11.82;;;;;;;1.96;71.11;95024.31;4750775;30;20125;-41
2021/01/02 05:22:42;;;;;;;16.77;11.50;;;;;;;1.75;71.59;95029.28;4737495;30;20149;-40
2021/01/02 05:25:17;;;;;;;20.92;12.15;;;;;;;1.80;71.56;95037.19;4738047;30;20092;-41
2021/01/02 05:27:52;;;;;;;19.63;12.85;;;;;;;1.74;71.87;95029.59;4737756;30;20461;-43
2021/01/02 05:30:29;;;;;;;22.70;13.85;;;;;;;1.64;72.34;95033.25;4743544;30;20568;-43
2021/01/02 05:33:13;;;;;;;20.77;12.75;;;;;;;1.68;72.20;95033.44;4746920;30;20060;-40
2021/01/02 05:35:48;;;;;;;18.65;11.52;;;;;;;1.77;71.90;95029.78;4734296;30;20056;-42
2021/01/02 05:38:22;;;;;;;17.67;11.27;;;;;;;1.85;71.74;95026.41;4741229;30;20496;-46
2021/01/02 05:40:52;;;;;;;18.83;11.60;;;;;;;2.01;71.26;95028.75;4745653;30;20149;-43
2021/01/02 05:43:24;;;;;;;17.33;11.82;;;;;;;2.11;70.23;95025.84;4741318;30;20062;-45
2021/01/02 05:45:51;;;;;;;18.88;11.77;;;;;;;2.28;70.31;95031.38;4739416;30;20056;-45
2021/01/02 05:48:23;;;;;;;18.67;11.85;;;;;;;2.26;70.34;95035.41;4747383;30;20056;-42
2021/01/02 05:50:58;;;;;;;19.42;12.13;;;;;;;2.28;70.01;95031.38;4743913;30;20056;-45
2021/01/02 05:53:28;;;;;;;19.95;12.25;;;;;;;2.24;69.55;95032.25;4735163;30;20057;-46
2021/01/02 05:56:01;;;;;;;17.20;11.35;;;;;;;1.85;70.87;95029.09;4744652;30;20074;-44
2021/01/02 05:58:35;;;;;;;17.33;11.03;;;;;;;1.82;71.69;95029.69;4750015;30;20143;-45
2021/01/02 06:01:10;;;;;;;19.55;11.93;;;;;;;1.92;71.42;95028.69;4747802;30;20060;-45
2021/01/02 06:03:39;;;;;;;18.30;11.52;;;;;;;1.93;70.89;95029.47;4734651;30;20064;-44
2021/01/02 06:06:12;;;;;;;17.30;10.82;;;;;;;2.00;70.75;95017.28;4743429;30;20060;-45
2021/01/02 06:08:46;;;;;;;18.77;11.65;;;;;;;2.16;69.59;95033.75;4734065;30;20056;-41
2021/01/02 06:11:17;;;;;;;19.10;11.30;;;;;;;2.07;70.14;95028.34;4741252;30;20077;-42
2021/01/02 06:13:46;;;;;;;19.38;12.35;;;;;;;1.98;70.50;95030.16;4749296;30;20115;-41
2021/01/02 06:16:13;;;;;;;18.27;12.65;;;;;;;2.03;70.20;95023.91;4741487;30;20135;-41
2021/01/02 06:18:44;;;;;;;18.20;11.48;;;;;;;2.08;70.06;95042.47;4736998;30;20110;-41
2021/01/02 06:21:18;;;;;;;17.23;11.63;;;;;;;2.15;69.79;95036.75;4751255;30;20135;-42
2021/01/02 06:23:47;;;;;;;18.30;11.73;;;;;;;2.41;68.57;95056.44;4739183;30;20139;-45
2021/01/02 06:26:15;;;;;;;19.80;12.00;;;;;;;2.34;68.35;95048.06;4742589;30;20135;-44
2021/01/02 06:28:44;;;;;;;21.13;13.18;;;;;;;2.25;68.93;95047.19;4746612;30;20076;-45
2021/01/02 06:31:13;;;;;;;20.48;12.60;;;;;;;1.94;69.53;95037.16;4740606;30;20115;-45
2021/01/02 06:33:48;;;;;;;20.48;12.98;;;;;;;1.99;69.94;95045.06;4740041;30;20064;-42
2021/01/02 06:36:33;;;;;;;21.20;11.98;;;;;;;1.90;70.63;95036.19;4746947;30;20094;-45
2021/01/02 06:39:23;;;;;;;18.75;12.05;;;;;;;2.05;69.94;95038.53;4738998;30;20056;-43
2021/01/02 06:41:52;;;;;;;21.45;13.13;;;;;;;1.87;70.63;95032.22;4738201;30;20636;-41
2021/01/02 06:44:37;;;;;;;19.77;11.68;;;;;;;1.76;70.97;95040.75;4734427;30;20061;-40
2021/01/02 06:47:20;;;;;;;18.92;12.18;;;;;;;1.75;70.75;95015.16;4744662;30;20151;-40
2021/01/02 06:49:48;;;;;;;22.02;13.23;;;;;;;1.98;70.11;95037.34;4734721;30;20060;-40
2021/01/02 06:52:34;;;;;;;18.85;12.18;;;;;;;2.02;70.12;95043.69;4747539;30;20125;-41
2021/01/02 06:55:21;;;;;;;20.00;12.65;;;;;;;2.03;69.78;95042.59;4750545;30;20052;-45
2021/01/02 06:57:50;;;;;;;22.17;13.32;;;;;;;2.02;69.29;95044.47;4739495;30;20145;-40
2021/01/02 07:00:27;;;;;;;23.45;14.48;;;;;;;2.05;69.69;95037.75;4749451;30;20103;-40
2021/01/02 07:02:56;;;;;;;22.65;13.45;;;;;;;2.00;69.79;95049.31;4738386;30;20069;-40
2021/01/02 07:05:42;;;;;;;22.83;14.35;;;;;;;1.87;70.46;95058.13;4747450;30;20110;-40
2021/01/02 07:08:42;;;;;;;22.90;13.65;;;;;;;1.98;70.16;95054.16;4733909;30;20045;-40
2021/01/02 07:11:35;;;;;;;21.42;13.27;;;;;;;1.99;70.21;95053.06;4733346;30;20064;-43
2021/01/02 07:14:08;;;;;;;23.30;13.45;;;;;;;2.12;69.56;95050.69;4742109;30;20052;-41
2021/01/02 07:16:51;;;;;;;23.08;14.75;;;;;;;1.58;71.66;95045.88;4767275;30;20052;-45
2021/01/02 07:19:26;;;;;;;26.37;15.53;;;;;;;1.66;71.73;95036.41;4739224;30;20091;-42
2021/01/02 07:22:04;;;;;;;23.20;14.40;;;;;;;1.80;71.17;95036.41;4748752;30;20118;-43
2021/01/02 07:24:36;;;;;;;22.17;13.63;;;;;;;1.57;71.46;95038.97;4745777;30;20122;-43
2021/01/02 07:27:04;;;;;;;24.08;14.23;;;;;;;1.63;71.32;95048.47;4740416;30;20135;-44
2021/01/02 07:29:46;;;;;;;23.15;13.35;;;;;;;1.68;70.78;95044.09;4751213;30;20492;-42
2021/01/02 07:32:15;;;;;;;23.90;13.63;;;;;;;1.67;70.83;95047.88;4743592;30;20513;-46
2021/01/02 07:34:44;;;;;;;23.27;14.68;;;;;;;1.56;71.09;95040.06;4741297;30;20065;-42
2021/01/02 07:37:23;;;;;;;23.92;15.15;;;;;;;1.63;71.49;95029.00;4749145;30;20052;-45
2021/01/02 07:40:22;;;;;;;25.63;14.93;;;;;;;1.83;70.78;95030.47;4736705;30;20068;-42
2021/01/02 07:42:51;;;;;;;23.92;14.95;;;;;;;1.71;71.31;95022.19;4735392;30;20424;-40
2021/01/02 07:45:21;;;;;;;27.45;15.10;;;;;;;1.66;71.77;95016.94;4746742;30;20064;-41
2021/01/02 07:48:06;;;;;;;25.08;14.85;;;;;;;1.60;71.76;95003.72;4747202;30;20060;-44
2021/01/02 07:50:33;;;;;;;22.17;14.18;;;;;;;1.67;71.60;95015.88;4737428;30;20528;-40
2021/01/02 07:53:02;;;;;;;25.23;14.73;;;;;;;1.76;71.20;95022.09;4741569;30;20577;-45
2021/01/02 07:55:33;;;;;;;22.83;14.65;;;;;;;1.63;71.73;95027.13;4744115;30;20111;-41
2021/01/02 07:58:00;;;;;;;25.73;14.73;;;;;;;1.57;71.88;95025.66;4749024;30;20056;-40
2021/01/02 08:00:28;;;;;;;23.70;15.02;;;;;;;1.48;72.14;95032.75;4738789;30;20396;-41
2021/01/02 08:03:01;;;;;;;23.88;15.00;;;;;;;1.61;71.89;95052.50;4748465;30;20068;-44
2021/01/02 08:05:28;;;;;;;24.35;14.45;;;;;;;1.84;70.74;95050.72;4744833;30;20060;-43
2021/01/02 08:07:59;;;;;;;24.48;15.90;;;;;;;1.93;70.35;95045.47;4740259;30;20106;-42
2021/01/02 08:10:27;;;;;;;24.90;14.60;;;;;;;2.00;70.21;95059.97;4750285;30;20056;-41
2021/01/02 08:12:57;;;;;;;22.67;14.75;;;;;;;1.99;69.83;95061.06;4748086;30;20068;-43
2021/01/02 08:15:27;;;;;;;22.83;14.60;;;;;;;1.95;69.57;95062.75;4744624;30;20542;-41
2021/01/02 08:17:59;;;;;;;25.58;14.32;;;;;;;2.16;69.42;95060.44;4751149;30;20120;-41
2021/01/02 08:20:25;;;;;;;24.45;15.98;;;;;;;2.25;69.10;95060.53;4738131;30;20087;-41
2021/01/02 08:22:53;;;;;;;23.98;14.77;;;;;;;2.13;69.66;95065.59;4752249;30;20060;-42
2021/01/02 08:25:20;;;;;;;22.00;14.10;;;;;;;2.03;69.82;95056.72;4738332;30;20061;-41
2021/01/02 08:27:49;;;;;;;25.33;15.13;;;;;;;2.09;69.51;95054.72;4748696;30;20056;-41
2021/01/02 08:30:16;;;;;;;26.25;15.52;;;;;;;1.93;70.38;95051.59;4749632;30;20146;-41
2021/01/02 08:32:51;;;;;;;24.13;15.13;;;;;;;1.93;70.45;95046.25;4748326;30;20072;-42
2021/01/02 08:35:20;;;;;;;25.02;15.45;;;;;;;2.09;69.48;95057.41;4749925;30;20169;-41
2021/01/02 08:37:48;;;;;;;25.05;14.85;;;;;;;1.33;71.75;95051.69;4751476;30;20050;-43
2021/01/02 08:40:17;;;;;;;26.58;15.48;;;;;;;1.54;71.78;95065.44;4750723;30;20653;-40
2021/01/02 08:42:46;;;;;;;25.92;15.50;;;;;;;1.56;71.33;95047.25;4736306;30;20136;-43
2021/01/02 08:45:25;;;;;;;25.02;15.73;;;;;;;1.58;71.32;95045.09;4749903;30;20577;-45
2021/01/02 08:48:07;;;;;;;26.40;16.48;;;;;;;1.78;70.74;95038.56;4740519;30;20517;-44
2021/01/02 08:50:34;;;;;;;24.15;15.80;;;;;;;1.71;70.34;95046.19;4751863;30;20058;-46
2021/01/02 08:53:01;;;;;;;25.55;15.93;;;;;;;1.43;71.37;95038.19;4746238;30;20061;-45
2021/01/02 08:55:29;;;;;;;27.45;16.90;;;;;;;1.51;71.56;95040.16;4743972;30;20079;-43
2021/01/02 08:57:55;;;;;;;28.88;16.83;;;;;;;1.72;70.86;95045.88;4745921;30;20695;-41
2021/01/02 09:00:30;;;;;;;28.55;16.75;;;;;;;1.75;72.31;95034.59;4745156;30;20515;-44
2021/01/02 09:03:01;;;;;;;25.33;15.98;;;;;;;1.85;71.18;95041.59;4750962;30;20099;-39
2021/01/02 09:05:29;;;;;;;24.30;14.70;;;;;;;1.82;69.81;95044.88;4743034;30;20510;-45
2021/01/02 09:08:09;;;;;;;27.77;15.77;;;;;;;1.99;70.20;95060.28;4744533;30;20082;-41
2021/01/02 09:10:38;;;;;;;26.63;15.35;;;;;;;1.97;69.83;95063.25;4735036;30;20060;-39
2021/01/02 09:13:24;;;;;;;23.13;14.73;;;;;;;1.98;69.58;95059.50;4748187;30;20086;-39
2021/01/02 09:15:58;;;;;;;26.83;15.43;;;;;;;2.01;69.41;95056.22;4734710;30;20064;-44
2021/01/02 09:18:31;;;;;;;24.33;14.82;;;;;;;2.07;69.15;95068.34;4748196;30;20044;-45
2021/01/02 09:21:10;;;;;;;25.98;15.65;;;;;;;2.28;68.78;95065.28;4739820;30;20530;-42
2021/01/02 09:23:56;;;;;;;27.02;15.95;;;;;;;2.20;68.65;95071.31;4739690;30;20067;-44
2021/01/02 09:26:27;;;;;;;26.75;15.70;;;;;;;2.25;68.10;95069.31;4736914;30;20057;-43
2021/01/02 09:28:56;;;;;;;25.70;15.85;;;;;;;2.26;68.52;95075.44;4743907;30;20052;-44
2021/01/02 09:31:24;;;;;;;28.80;17.20;;;;;;;2.23;68.38;95078.72;4735817;30;20064;-43
2021/01/02 09:33:52;;;;;;;24.67;15.55;;;;;;;2.05;68.29;95083.91;4795554;24;20134;-41
2021/01/02 09:36:21;;;;;;;25.73;15.55;;;;;;;1.58;70.51;95083.19;4789131;29;20378;-42
2021/01/02 09:38:49;;;;;;;26.35;15.40;;;;;;;1.73;70.32;95082.13;4787373;29;20055;-41
2021/01/02 09:41:19;;;;;;;27.85;16.33;;;;;;;1.63;69.91;95080.44;4789298;29;20524;-42
2021/01/02 09:43:45;;;;;;;24.33;15.32;;;;;;;1.73;69.90;95084.00;4773233;30;20100;-44
2021/01/02 09:46:16;;;;;;;28.67;16.50;;;;;;;1.94;69.73;95081.72;4751143;30;20195;-43
2021/01/02 09:48:45;;;;;;;26.30;16.02;;;;;;;2.01;68.94;95106.91;4759939;30;20210;-42
2021/01/02 09:51:13;;;;;;;23.30;15.00;;;;;;;2.01;68.68;95074.88;4783733;29;20052;-42
2021/01/02 09:53:40;;;;;;;24.45;15.05;;;;;;;1.93;69.16;95070.25;4770707;30;20404;-44
2021/01/02 09:56:07;;;;;;;25.80;15.27;;;;;;;2.04;68.51;95068.16;4770102;30;20130;-44
2021/01/02 09:58:33;;;;;;;24.95;15.55;;;;;;;2.22;68.02;95085.16;4768517;30;20108;-44
2021/01/02 10:01:00;;;;;;;26.15;16.05;;;;;;;2.14;68.05;95072.50;4769184;30;20113;-44
2021/01/02 10:03:27;;;;;;;25.33;15.45;;;;;;;2.20;67.18;95085.44;4782671;30;20407;-44
2021/01/02 10:05:53;;;;;;;26.90;15.93;;;;;;;2.35;67.48;95084.34;4767102;29;20066;-43
2021/01/02 10:08:21;;;;;;;25.75;15.35;;;;;;;2.22;67.76;95090.50;4768619;30;20060;-42
2021/01/02 10:10:48;;;;;;;27.10;15.77;;;;;;;2.18;67.37;95089.50;4768109;30;20056;-43
2021/01/02 10:13:15;;;;;;;25.55;15.07;;;;;;;2.14;67.38;95093.84;4768243;30;20056;-46
2021/01/02 10:15:41;;;;;;;24.10;14.65;;;;;;;2.28;66.02;95082.06;4768672;30;20059;-44
2021/01/02 10:18:10;;;;;;;23.77;13.95;;;;;;;1.94;67.20;95076.38;4768230;29;20144;-41
2021/01/02 10:20:36;;;;;;;24.70;15.35;;;;;;;2.02;67.46;95063.16;4775411;29;20059;-41
2021/01/02 10:23:03;;;;;;;25.33;15.10;;;;;;;1.95;67.57;95054.75;4784200;29;20051;-47
2021/01/02 10:25:30;;;;;;;26.75;14.93;;;;;;;1.76;67.90;95054.88;4779126;29;20078;-41
2021/01/02 10:27:56;;;;;;;27.27;15.50;;;;;;;1.74;68.62;95051.69;4782885;29;20063;-41
2021/01/02 10:30:23;;;;;;;24.75;15.55;;;;;;;2.04;67.51;95044.94;4767929;30;20058;-45
2021/01/02 10:32:49;;;;;;;23.70;16.08;;;;;;;1.68;67.45;95050.22;4768871;30;20082;-42
2021/01/02 10:35:16;;;;;;;27.00;16.55;;;;;;;1.37;69.48;95044.69;4784875;29;20056;-47
2021/01/02 10:37:47;;;;;;;25.23;15.40;;;;;;;0.99;70.94;95044.06;4786530;29;20047;-46
2021/01/02 10:40:16;;;;;;;26.33;16.35;;;;;;;1.29;70.15;95054.16;4786859;29;20067;-43
2021/01/02 10:42:42;;;;;;;25.98;15.93;;;;;;;1.60;69.30;95046.38;4786745;29;20059;-46
2021/01/02 10:45:12;;;;;;;28.42;15.88;;;;;;;1.71;68.90;95043.50;4777771;29;20534;-43
2021/01/02 10:47:39;;;;;;;25.13;15.50;;;;;;;2.13;67.36;95044.25;4772183;30;20055;-44
2021/01/02 10:50:06;;;;;;;26.95;15.93;;;;;;;2.08;66.84;95037.13;4772788;30;20139;-45
2021/01/02 10:52:33;;;;;;;28.98;17.13;;;;;;;2.06;67.06;95042.78;4781600;30;20143;-40
2021/01/02 10:54:59;;;;;;;28.83;16.77;;;;;;;2.00;67.59;95029.84;4790500;29;20138;-44
2021/01/02 10:57:27;;;;;;;28.08;16.83;;;;;;;1.91;67.42;95023.63;4789309;29;20059;-43
2021/01/02 10:59:55;;;;;;;30.27;17.35;;;;;;;1.91;67.94;95012.97;4786377;29;20141;-43
2021/01/02 11:02:23;;;;;;;29.88;16.92;;;;;;;2.16;66.87;95004.41;4775658;30;20141;-45
2021/01/02 11:04:51;;;;;;;26.45;16.42;;;;;;;1.83;67.46;95009.91;4772302;30;20056;-41
2021/01/02 11:07:23;;;;;;;30.98;16.63;;;;;;;1.74;68.36;95024.25;4779181;30;20058;-47
2021/01/02 11:09:52;;;;;;;31.17;18.70;;;;;;;1.60;68.68;95003.72;4784069;29;20066;-43
2021/01/02 11:12:20;;;;;;;26.38;16.50;;;;;;;1.69;68.59;95009.16;4789848;29;20476;-41
2021/01/02 11:14:48;;;;;;;29.65;17.50;;;;;;;1.82;68.57;95010.19;4783710;30;20069;-42
2021/01/02 11:17:15;;;;;;;29.63;17.90;;;;;;;1.99;67.83;95012.28;4769582;30;20138;-48
2021/01/02 11:19:44;;;;;;;29.55;18.35;;;;;;;2.22;67.28;95010.44;4786772;29;20532;-39
2021/01/02 11:22:13;;;;;;;27.88;17.65;;;;;;;2.37;66.68;95002.03;4788804;29;20051;-45
2021/01/02 11:24:43;;;;;;;29.00;17.92;;;;;;;2.21;66.99;95001.63;4789136;29;20066;-41
2021/01/02 11:27:09;;;;;;;29.88;17.42;;;;;;;2.33;66.37;94995.75;4789042;29;20112;-43
2021/01/02 11:29:36;;;;;;;26.65;16.80;;;;;;;1.97;66.56;94996.53;4785208;29;20055;-43
2021/01/02 11:32:08;;;;;;;29.50;18.30;;;;;;;2.07;67.30;94990.19;4775965;29;20083;-45
2021/01/02 11:34:35;;;;;;;30.63;18.87;;;;;;;1.88;67.53;94987.66;4774609;30;20522;-43
2021/01/02 11:37:04;;;;;;;30.73;18.00;;;;;;;1.99;67.25;94981.03;4781576;29;20472;-44
2021/01/02 11:39:31;;;;;;;30.70;18.58;;;;;;;1.97;67.51;94993.09;4779928;30;20059;-45
2021/01/02 11:42:06;;;;;;;33.22;18.85;;;;;;;2.08;66.72;94989.09;4782054;29;20476;-39
2021/01/02 11:44:33;;;;;;;31.08;18.83;;;;;;;1.95;67.30;94980.06;4775714;30;20130;-45
2021/01/02 11:47:01;;;;;;;32.75;19.15;;;;;;;1.93;67.29;94981.44;4782458;29;20079;-40
2021/01/02 11:49:30;;;;;;;35.45;20.20;;;;;;;1.95;67.73;94976.59;4772208;30;20119;-43